Orrville, Ohio
Current Conditions -  °F | °C
As of 8:03 AM on Tuesday 21 Oct 2014 (Local Time) from KBJJ Reporting Station
Haze Haze  
Wind Chill: 51°   Ceiling: 900
Heat Index: 51°   Visibility: 6mi
Dew Point: 47°   Wind: 8mph
Humidity: 86%   Direction: 330°NNW
Pressure: 29.9"   Gusts: NA
Location:  40.84°N, 81.76°W
Report Text: KBJJ 211203Z AUTO 33007KT 6SM BR OVC009 11/08 A2990 RMK AO2 CIG 006V011 T01060083 TSNO
Loading
Personal Weather Stations






























Interactive Weather Map
Tropical Storm Tracking
New forecast layout! Learn more

10-Day Weather Forecast

Advertisements
Track Severe Weather on mobile